AC0ID-13 Weather Reports


Display with metric or nautical units.
time (UTC)temp
F
wind
direction
speed
MPH
gust
MPH
rain 1hr
in
rain 24hr
in
rain mn
in
humidity
%
barometer
mb
20260505214006 54 17 1.0 6.0 0.00 0.00 0.00 35 1010.1
20260505213508 54 146 2.0 7.0 0.00 0.00 0.00 34 1010.0
20260505213017 54 217 1.0 7.0 0.00 0.00 0.00 35 1010.1
20260505212506 54 198 1.0 8.0 0.00 0.00 0.00 36 1010.1
20260505212007 54 31 1.0 10.0 0.00 0.00 0.00 37 1010.1
20260505211518 54 348 3.0 10.0 0.00 0.00 0.00 35 1010.0
20260505211007 54 181 2.0 10.0 0.00 0.00 0.00 35 1010.1
20260505210511 54 329 2.0 10.0 0.00 0.00 0.00 36 1010.0
20260505210024 54 215 2.0 10.0 0.00 0.00 0.00 37 1010.2
20260505205511 53 286 2.0 10.0 0.00 0.00 0.00 38 1010.2
20260505205011 53 181 2.0 10.0 0.00 0.00 0.00 36 1010.3
20260505204533 54 332 4.0 10.0 0.00 0.00 0.00 36 1010.2
20260505204008 53 277 2.0 4.0 0.00 0.00 0.00 38 1010.3
20260505203511 54 325 1.0 9.0 0.00 0.00 0.00 35 1010.3
20260505203030 53 278 2.0 15.0 0.00 0.00 0.00 36 1010.3
20260505202506 54 352 4.0 15.0 0.00 0.00 0.00 35 1010.4
20260505202011 54 304 2.0 8.0 0.00 0.00 0.00 37 1010.4
20260505201520 54 348 2.0 9.0 0.00 0.00 0.00 37 1010.5
20260505201006 53 317 2.0 9.0 0.00 0.00 0.00 37 1010.6
20260505200509 53 360 2.0 9.0 0.00 0.00 0.00 36 1010.7
20260505200035 53 320 3.0 9.0 0.00 0.00 0.00 37 1010.6
20260505195509 53 271 2.0 11.0 0.00 0.00 0.00 36 1010.6
20260505195007 53 234 1.0 11.0 0.00 0.00 0.00 35 1010.7
20260505194524 53 25 1.0 8.0 0.00 0.00 0.00 36 1010.6
20260505194006 53 257 2.0 7.0 0.00 0.00 0.00 36 1010.7
20260505193506 53 15 2.0 7.0 0.00 0.00 0.00 35 1010.6
20260505193010 54 242 2.0 7.0 0.00 0.00 0.00 33 1010.8
20260505192505 53 185 1.0 8.0 0.00 0.00 0.00 36 1010.7
20260505192005 52 37 1.0 8.0 0.00 0.00 0.00 37 1010.9
20260505191512 52 304 1.0 5.0 0.00 0.00 0.00 37 1010.8
20260505191012 52 249 1.0 9.0 0.00 0.00 0.00 39 1010.8
20260505190505 52 168 3.0 9.0 0.00 0.00 0.00 36 1010.8
20260505190011 52 221 2.0 11.0 0.00 0.00 0.00 36 1010.9
20260505185507 52 263 1.0 11.0 0.00 0.00 0.00 38 1010.9
20260505185005 51 176 1.0 7.0 0.00 0.00 0.00 37 1010.8
20260505184510 51 170 1.0 13.0 0.00 0.00 0.00 38 1010.9
20260505184007 51 156 1.0 13.0 0.00 0.00 0.00 39 1010.9
20260505183506 51 343 3.0 12.0 0.00 0.00 0.00 36 1010.9
20260505183012 51 248 2.0 8.0 0.00 0.00 0.00 38 1010.8
20260505182502 51 5 2.0 8.0 0.00 0.00 0.00 38 1010.8
20260505182006 51 270 3.0 11.0 0.00 0.00 0.00 36 1010.7
20260505181515 52 22 2.0 11.0 0.00 0.00 0.00 34 1010.7
20260505181007 52 261 3.0 9.0 0.00 0.00 0.00 36 1010.6
20260505180505 53 139 1.0 11.0 0.00 0.00 0.00 38 1010.6
20260505180016 53 44 2.0 11.0 0.00 0.00 0.00 33 1010.6
20260505175510 54 305 2.0 10.0 0.00 0.00 0.00 37 1010.5
20260505175004 52 42 2.0 13.0 0.00 0.00 0.00 38 1010.6
20260505174512 52 339 4.0 13.0 0.00 0.00 0.00 34 1010.6
20260505174008 52 90 3.0 9.0 0.00 0.00 0.00 37 1010.6
20260505173506 52 298 1.0 10.0 0.00 0.00 0.00 38 1010.5
20260505173014 52 259 3.0 10.0 0.00 0.00 0.00 35 1010.4
20260505172506 52 346 3.0 10.0 0.00 0.00 0.00 35 1010.5
20260505172009 52 137 1.0 12.0 0.00 0.00 0.00 35 1010.5
20260505171518 52 284 2.0 12.0 0.00 0.00 0.00 37 1010.6
20260505171007 53 341 5.0 12.0 0.00 0.00 0.00 33 1010.6
20260505170503 53 271 1.0 9.0 0.00 0.00 0.00 36 1010.7
20260505170018 52 293 3.0 10.0 0.00 0.00 0.00 37 1010.7
20260505165506 52 131 1.0 10.0 0.00 0.00 0.00 36 1010.7
20260505165009 51 352 2.0 10.0 0.00 0.00 0.00 38 1010.7
20260505164518 51 295 2.0 8.0 0.00 0.00 0.00 38 1010.7
20260505164006 51 181 1.0 11.0 0.00 0.00 0.00 36 1010.8
20260505163507 51 296 2.0 11.0 0.00 0.00 0.00 37 1010.7
20260505163018 51 66 1.0 14.0 0.00 0.00 0.00 38 1010.7
20260505162506 51 252 5.0 14.0 0.00 0.00 0.00 36 1010.9
20260505162006 52 295 1.0 10.0 0.00 0.00 0.00 40 1010.9
20260505161519 51 46 2.0 9.0 0.00 0.00 0.00 39 1011.0
20260505161007 51 348 1.0 12.0 0.00 0.00 0.00 39 1010.9
20260505160507 50 344 3.0 12.0 0.00 0.00 0.00 38 1010.9
20260505153021 50 300 2.0 7.0 0.00 0.00 0.00 39 1010.8
20260505152508 50 301 1.0 11.0 0.00 0.00 0.00 41 1010.6
20260505152013 50 324 1.0 11.0 0.00 0.00 0.00 41 1010.5
20260505151521 49 293 3.0 10.0 0.00 0.00 0.00 43 1010.5
20260505151009 49 332 3.0 11.0 0.00 0.00 0.00 41 1010.5
20260505150507 48 338 2.0 11.0 0.00 0.00 0.00 42 1010.4
20260505140510 43 256 2.0 5.0 0.00 0.00 0.00 53 1010.5
20260505125004 37 332 1.0 4.0 0.00 0.00 0.00 68 1009.9
20260505124505 37 12 0.0 3.0 0.00 0.00 0.00 68 1009.8
20260505124005 37 342 0.0 4.0 0.00 0.00 0.00 68 1009.8
20260505123506 37 267 0.0 6.0 0.00 0.00 0.00 68 1009.8
20260505123013 36 346 2.0 6.0 0.00 0.00 0.00 69 1009.8
20260505122503 36 325 1.0 6.0 0.00 0.00 0.00 69 1009.7
20260505122011 36 325 2.0 6.0 0.00 0.00 0.00 69 1009.6
20260505121518 35 315 1.0 3.0 0.00 0.00 0.00 69 1009.6
20260505121005 35 348 0.0 5.0 0.00 0.00 0.00 69 1009.6
20260505120503 35 327 1.0 5.0 0.00 0.00 0.00 69 1009.4
20260505120004 35 346 1.0 4.0 0.00 0.00 0.00 69 1009.4
20260505115504 35 301 0.0 3.0 0.00 0.00 0.00 68 1009.3
20260505115003 35 326 0.0 4.0 0.00 0.00 0.00 68 1009.2
20260505114506 35 360 0.0 4.0 0.00 0.00 0.00 68 1009.0
20260505114004 35 338 0.0 3.0 0.00 0.00 0.00 67 1008.9
20260505113504 35 304 0.0 0.0 0.00 0.00 0.00 67 1008.8
20260505113008 35 267 0.0 0.0 0.00 0.00 0.00 66 1008.6
20260505112509 35 267 0.0 1.0 0.00 0.00 0.00 66 1008.6
20260505112006 35 218 0.0 1.0 0.00 0.00 0.00 65 1008.5
20260505111511 35 218 0.0 1.0 0.00 0.00 0.00 65 1008.2
20260505111003 35 218 0.0 1.0 0.00 0.00 0.00 64 1008.1
20260505110507 35 218 0.0 1.0 0.00 0.00 0.00 64 1008.0
20260505102004 36 208 0.0 2.0 0.00 0.00 0.00 63 1007.6
20260505101512 36 242 0.0 2.0 0.00 0.00 0.00 63 1007.6
20260505101003 36 279 0.0 2.0 0.00 0.00 0.00 63 1007.6
20260505100507 36 200 0.0 2.0 0.00 0.00 0.00 63 1007.5
20260505100016 36 200 0.0 2.0 0.00 0.00 0.00 63 1007.6
20260505095507 36 219 0.0 2.0 0.00 0.00 0.00 63 1007.6
20260505095006 36 219 0.0 2.0 0.00 0.00 0.00 63 1007.6
20260505094507 37 210 0.0 2.0 0.00 0.00 0.00 62 1007.6
20260505094006 37 102 0.0 2.0 0.00 0.00 0.00 62 1007.6
20260505093506 37 144 0.0 1.0 0.00 0.00 0.00 62 1007.5
20260505093026 37 161 0.0 2.0 0.00 0.00 0.00 61 1007.5
20260505092507 37 163 0.0 2.0 0.00 0.00 0.00 61 1007.5
20260505092004 37 193 0.0 1.0 0.00 0.00 0.00 60 1007.5
20260505091508 38 193 0.0 1.0 0.00 0.00 0.00 60 1007.5
20260505091003 38 193 0.0 1.0 0.00 0.00 0.00 59 1007.4
20260505090503 38 193 0.0 1.0 0.00 0.00 0.00 58 1007.4
20260505090011 38 193 0.0 1.0 0.00 0.00 0.00 58 1007.3
20260505085504 38 193 0.0 1.0 0.00 0.00 0.00 58 1007.1
20260505085004 39 193 0.0 1.0 0.00 0.00 0.00 58 1007.1
20260505084519 39 193 0.0 1.0 0.00 0.00 0.00 58 1007.0
20260505084006 39 193 0.0 1.0 0.00 0.00 0.00 57 1007.0
20260505083507 39 193 0.0 1.0 0.00 0.00 0.00 57 1006.9
20260505083014 39 193 0.0 2.0 0.00 0.00 0.00 57 1006.8
20260505082508 39 193 0.0 2.0 0.00 0.00 0.00 57 1006.8
20260505082013 40 131 0.0 2.0 0.00 0.00 0.00 57 1006.7
20260505081509 40 141 0.0 1.0 0.00 0.00 0.00 57 1006.6
20260505081008 40 142 0.0 1.0 0.00 0.00 0.00 57 1006.6
20260505080504 40 131 0.0 2.0 0.00 0.00 0.00 56 1006.5
20260505080012 40 127 0.0 2.0 0.00 0.00 0.00 56 1006.6
20260505075504 40 136 0.0 1.0 0.00 0.00 0.00 56 1006.6
20260505075007 40 136 0.0 1.0 0.00 0.00 0.00 56 1006.6
20260505074514 41 39 0.0 2.0 0.00 0.00 0.00 56 1006.6
20260505074007 41 232 0.0 3.0 0.00 0.00 0.00 56 1006.5
20260505073504 41 22 0.0 3.0 0.00 0.00 0.00 56 1006.5
20260505073024 41 217 0.0 3.0 0.00 0.00 0.00 55 1006.5
20260505072509 41 162 0.0 2.0 0.00 0.00 0.00 55 1006.5
20260505072004 41 162 0.0 4.0 0.00 0.00 0.00 55 1006.5
20260505071539 41 244 0.0 4.0 0.00 0.00 0.00 55 1006.6
20260505071008 41 328 0.0 4.0 0.00 0.00 0.00 55 1006.6
20260505070511 41 266 0.0 3.0 0.00 0.00 0.00 55 1006.6
20260505070016 41 282 0.0 3.0 0.00 0.00 0.00 55 1006.6
20260505065509 41 150 0.0 2.0 0.00 0.00 0.00 54 1006.5
20260505065008 41 80 0.0 3.0 0.00 0.00 0.00 54 1006.5
20260505064520 42 196 0.0 3.0 0.00 0.00 0.00 54 1006.5
20260505064005 42 112 0.0 6.0 0.00 0.00 0.00 54 1006.5
20260505063503 42 49 1.0 6.0 0.00 0.00 0.00 54 1006.5
20260505063016 42 321 0.0 3.0 0.00 0.00 0.00 53 1006.5
20260505062504 42 31 0.0 3.0 0.00 0.00 0.00 53 1006.5
20260505062010 42 148 0.0 3.0 0.00 0.00 0.00 53 1006.5
20260505061519 42 138 0.0 3.0 0.00 0.00 0.00 53 1006.5
20260505061012 42 301 0.0 3.0 0.00 0.00 0.00 52 1006.5
20260505060510 42 322 0.0 2.0 0.00 0.00 0.00 52 1006.4
20260505060021 42 305 0.0 2.0 0.00 0.00 0.00 52 1006.5
20260505055510 42 313 0.0 2.0 0.00 0.00 0.00 52 1006.6
20260505055008 42 121 0.0 2.0 0.00 0.00 0.00 51 1006.5
20260505054532 43 121 0.0 3.0 0.00 0.00 0.00 51 1006.6
20260505054013 43 121 0.0 3.0 0.00 0.00 0.00 51 1006.5
20260505053515 43 84 0.0 2.0 0.00 0.00 0.00 51 1006.5
20260505053024 43 52 0.0 2.0 0.00 0.00 0.00 51 1006.5
20260505052505 43 119 0.0 2.0 0.00 0.00 0.00 50 1006.5
20260505052007 43 75 0.0 2.0 0.00 0.00 0.00 50 1006.5
20260505051520 43 38 0.0 2.0 0.00 0.00 0.00 50 1006.5
20260505051008 43 246 0.0 2.0 0.00 0.00 0.00 49 1006.4
20260505050509 43 196 0.0 2.0 0.00 0.00 0.00 49 1006.4
20260505041521 45 81 0.0 3.0 0.00 0.00 0.00 46 1006.5
20260505041007 45 150 0.0 3.0 0.00 0.00 0.00 45 1006.4
20260505040507 45 301 0.0 5.0 0.00 0.00 0.00 45 1006.5
20260505040032 46 18 1.0 5.0 0.00 0.00 0.00 45 1006.5
20260505035508 46 333 0.0 7.0 0.00 0.00 0.00 45 1006.5
20260505035013 46 288 1.0 7.0 0.00 0.00 0.00 45 1006.5
20260505034523 46 333 0.0 7.0 0.00 0.00 0.00 46 1006.5
20260505034012 47 321 1.0 7.0 0.00 0.00 0.00 46 1006.5
20260505033506 47 18 0.0 8.0 0.00 0.00 0.00 46 1006.5
20260505033028 47 288 1.0 8.0 0.00 0.00 0.00 45 1006.5
20260505032507 47 294 1.0 8.0 0.00 0.00 0.00 46 1006.4
20260505032011 47 296 1.0 11.0 0.00 0.00 0.00 46 1006.4
20260505031528 48 16 3.0 11.0 0.00 0.00 0.00 46 1006.5
20260505031014 48 325 3.0 8.0 0.00 0.00 0.00 46 1006.5
20260505030506 48 262 2.0 9.0 0.00 0.00 0.00 45 1006.3
20260505030027 48 30 2.0 9.0 0.00 0.00 0.00 45 1006.2
20260505025509 48 259 2.0 10.0 0.00 0.00 0.00 45 1006.0
20260505025007 49 205 2.0 13.0 0.00 0.00 0.00 45 1005.9
20260505024520 49 339 2.0 13.0 0.00 0.00 0.00 44 1005.8
20260505024006 49 277 3.0 13.0 0.00 0.00 0.00 44 1005.7
20260505023508 49 33 3.0 11.0 0.00 0.00 0.00 43 1005.6
20260505023020 49 301 2.0 9.0 0.00 0.00 0.00 44 1005.5
20260505022509 49 342 2.0 11.0 0.00 0.00 0.00 44 1005.3
20260505022010 49 324 3.0 11.0 0.00 0.00 0.00 43 1005.2
20260505021526 50 36 2.0 10.0 0.00 0.00 0.00 43 1004.9
20260505021007 50 167 3.0 10.0 0.00 0.00 0.00 42 1004.8
20260505020511 50 134 1.0 11.0 0.00 0.00 0.00 43 1004.8
20260505020026 50 324 3.0 11.0 0.00 0.00 0.00 43 1004.7
20260505015508 50 263 2.0 11.0 0.00 0.00 0.00 43 1004.6
20260505015007 51 313 1.0 9.0 0.00 0.00 0.00 43 1004.5
20260505014528 51 340 3.0 12.0 0.00 0.00 0.00 43 1004.5
20260505014009 51 317 3.0 12.0 0.00 0.00 0.00 42 1004.4
20260505013509 51 261 3.0 11.0 0.00 0.00 0.00 42 1004.3
20260505013020 52 320 4.0 11.0 0.00 0.00 0.00 42 1004.2
20260505012507 52 327 4.0 11.0 0.00 0.00 0.00 42 1004.0
20260505012010 52 274 2.0 14.0 0.00 0.00 0.00 41 1003.9
20260505011524 52 219 4.0 17.0 0.00 0.00 0.00 41 1003.8
20260505011007 53 225 3.0 17.0 0.00 0.00 0.00 41 1003.7
20260505010503 53 332 3.0 13.0 0.00 0.00 0.00 41 1003.6
20260505010004 53 346 3.0 9.0 0.00 0.00 0.00 41 1003.6
20260505005504 54 330 2.0 9.0 0.00 0.00 0.00 41 1003.5
20260505005006 54 327 1.0 9.0 0.00 0.00 0.00 41 1003.4
20260505004504 54 306 2.0 10.0 0.00 0.00 0.00 40 1003.3
20260505004003 54 290 5.0 10.0 0.00 0.00 0.00 40 1003.2
20260505003508 55 352 1.0 10.0 0.00 0.00 0.00 40 1003.2
20260505003020 55 351 1.0 12.0 0.00 0.00 0.00 40 1003.0
20260505002503 55 298 4.0 12.0 0.00 0.00 0.00 39 1003.0
20260505002003 56 49 3.0 12.0 0.00 0.00 0.00 40 1002.9
20260505001504 56 314 4.0 11.0 0.00 0.00 0.00 39 1002.9
20260505001003 56 348 3.0 12.0 0.00 0.00 0.00 39 1002.7
20260505000504 56 299 1.0 12.0 0.00 0.00 0.00 39 1002.8
20260505000007 57 344 2.0 12.0 0.00 0.00 0.00 39 1002.7
20260504235506 57 221 2.0 10.0 0.00 0.00 0.00 38 1002.6
20260504235004 57 24 2.0 14.0 0.00 0.00 0.00 38 1002.6
20260504234509 58 315 4.0 14.0 0.00 0.00 0.00 37 1002.5
20260504234008 58 273 4.0 12.0 0.00 0.00 0.00 37 1002.5
20260504233502 58 321 3.0 10.0 0.00 0.00 0.00 37 1002.4
20260504233010 59 257 3.0 10.0 0.00 0.00 0.00 37 1002.3
20260504232507 59 210 3.0 15.0 0.00 0.00 0.00 36 1002.3
20260504232010 59 331 6.0 15.0 0.00 0.00 0.00 36 1002.3
20260504231503 59 324 5.0 14.0 0.00 0.00 0.00 36 1002.1
20260504231001 60 257 3.0 14.0 0.00 0.00 0.00 36 1002.1
20260504230503 60 288 3.0 11.0 0.00 0.00 0.00 36 1002.0
20260504230003 60 237 2.0 11.0 0.00 0.00 0.00 36 1002.1
20260504225503 60 266 4.0 11.0 0.00 0.00 0.00 35 1001.8
20260504225006 60 251 2.0 18.0 0.00 0.00 0.00 35 1001.8
20260504224511 61 52 3.0 18.0 0.00 0.00 0.00 35 1001.7
20260504224002 61 350 3.0 13.0 0.00 0.00 0.00 34 1001.6
20260504223506 61 267 3.0 9.0 0.00 0.00 0.00 34 1001.5
20260504223013 61 45 3.0 17.0 0.00 0.00 0.00 33 1001.6
20260504222507 62 229 3.0 17.0 0.00 0.00 0.00 33 1001.4
20260504222003 62 304 4.0 11.0 0.00 0.00 0.00 33 1001.3
20260504221516 63 348 2.0 10.0 0.00 0.00 0.00 33 1001.2
20260504221005 63 323 2.0 8.0 0.00 0.00 0.00 33 1001.1
20260504220503 63 158 2.0 10.0 0.00 0.00 0.00 33 1000.9
20260504220007 63 254 1.0 12.0 0.00 0.00 0.00 34 1000.8
20260504215506 63 78 3.0 12.0 0.00 0.00 0.00 33 1000.7
20260504215002 63 349 1.0 12.0 0.00 0.00 0.00 34 1000.7
20260504214506 63 280 3.0 11.0 0.00 0.00 0.00 35 1000.8